Time;durP1;ratioP1;P1;durP2;ratioP2;P2;SDS_P1;SDS_P2;PMS_P1;PMS_P2;Temp;Humidity;BMP_temperature;BMP_pressure;BME280_temperature;BME280_humidity;BME280_pressure;Samples;Min_cycle;Max_cycle;Signal;HPM_P1;HPM_P2
2020/12/24 00:02:13;;;;;;;2.28;0.65;;;8.80;99.90;;;;;;5044718;28;20025;-64
2020/12/24 00:04:39;;;;;;;2.88;0.85;;;8.80;99.90;;;;;;5041010;28;20048;-66
2020/12/24 00:07:04;;;;;;;5.80;0.80;;;8.80;99.90;;;;;;5045441;28;20025;-63
2020/12/24 00:09:30;;;;;;;9.57;1.00;;;8.80;99.90;;;;;;5047449;28;20060;-70
2020/12/24 00:11:55;;;;;;;3.55;0.88;;;8.80;99.90;;;;;;5044023;28;20040;-63
2020/12/24 00:14:22;;;;;;;4.07;0.60;;;8.80;99.90;;;;;;5044556;28;20044;-63
2020/12/24 00:16:48;;;;;;;6.88;0.98;;;8.90;99.90;;;;;;5041980;28;20187;-64
2020/12/24 00:19:13;;;;;;;10.60;1.00;;;8.90;99.90;;;;;;5042127;28;20970;-63
2020/12/24 00:21:39;;;;;;;7.65;1.27;;;8.80;99.90;;;;;;5042313;28;20408;-63
2020/12/24 00:24:06;;;;;;;2.63;0.80;;;8.80;99.90;;;;;;5041310;28;20501;-63
2020/12/24 00:26:31;;;;;;;8.95;1.65;;;8.90;99.90;;;;;;5042441;28;20582;-64
2020/12/24 00:28:57;;;;;;;2.17;0.80;;;8.90;99.90;;;;;;5040761;28;20037;-63
2020/12/24 00:31:22;;;;;;;9.75;1.20;;;8.90;99.90;;;;;;5043659;28;20044;-63
2020/12/24 00:33:48;;;;;;;13.00;1.90;;;8.90;99.90;;;;;;5040733;28;20120;-63
2020/12/24 00:36:14;;;;;;;3.65;0.90;;;8.90;99.90;;;;;;5041967;28;20485;-63
2020/12/24 00:38:39;;;;;;;7.03;0.80;;;8.90;99.90;;;;;;5043039;28;20067;-63
2020/12/24 00:41:07;;;;;;;6.80;1.52;;;8.90;99.90;;;;;;5040923;28;20481;-64
2020/12/24 00:43:32;;;;;;;6.25;0.85;;;9.00;99.90;;;;;;5042224;28;20043;-63
2020/12/24 00:45:58;;;;;;;5.55;0.95;;;9.00;99.90;;;;;;5038968;28;20112;-62
2020/12/24 00:48:24;;;;;;;10.57;0.88;;;8.90;99.90;;;;;;5043619;28;20432;-62
2020/12/24 00:50:49;;;;;;;8.10;1.52;;;8.90;99.90;;;;;;5040489;28;20033;-63
2020/12/24 00:53:15;;;;;;;9.18;1.98;;;8.90;99.90;;;;;;5042046;28;20029;-64
2020/12/24 00:55:40;;;;;;;2.45;0.68;;;9.00;99.90;;;;;;5042978;28;20059;-64
2020/12/24 00:58:06;;;;;;;3.38;0.80;;;8.90;99.90;;;;;;5044012;28;20574;-63
2020/12/24 01:00:31;;;;;;;2.65;0.93;;;9.00;99.90;;;;;;5047271;28;20128;-64
2020/12/24 01:02:57;;;;;;;7.72;1.55;;;8.90;99.90;;;;;;5040190;28;20034;-64
2020/12/24 01:05:22;;;;;;;3.67;0.50;;;8.90;99.90;;;;;;5043718;28;20132;-63
2020/12/24 01:07:48;;;;;;;7.70;0.98;;;8.90;99.90;;;;;;5041604;28;20044;-63
2020/12/24 01:10:14;;;;;;;5.47;0.50;;;9.00;99.90;;;;;;5042589;28;20107;-64
2020/12/24 01:12:40;;;;;;;7.45;0.68;;;8.90;99.90;;;;;;5042422;28;20029;-63
2020/12/24 01:15:07;;;;;;;2.25;0.60;;;8.90;99.90;;;;;;5040707;28;20056;-64
2020/12/24 01:17:32;;;;;;;6.00;0.75;;;8.80;99.90;;;;;;5048140;28;20108;-63
2020/12/24 01:19:58;;;;;;;3.13;0.40;;;8.80;99.90;;;;;;5048785;28;20056;-63
2020/12/24 01:22:23;;;;;;;5.18;0.93;;;8.80;99.90;;;;;;5046162;28;20033;-63
2020/12/24 01:24:49;;;;;;;7.25;0.77;;;8.80;99.90;;;;;;5040797;28;20114;-64
2020/12/24 01:27:14;;;;;;;4.25;0.47;;;8.80;99.90;;;;;;5042382;28;20033;-63
2020/12/24 01:29:40;;;;;;;7.43;0.47;;;8.70;99.90;;;;;;5042534;28;20494;-65
2020/12/24 01:32:05;;;;;;;5.57;1.27;;;8.70;99.90;;;;;;5041349;28;20042;-66
2020/12/24 01:34:31;;;;;;;4.18;0.50;;;8.60;99.90;;;;;;5044613;28;20056;-63
2020/12/24 01:37:01;;;;;;;5.30;0.70;;;8.60;99.90;;;;;;5042466;28;20034;-64
2020/12/24 01:39:26;;;;;;;5.10;0.40;;;8.70;99.90;;;;;;5041945;28;20097;-64
2020/12/24 01:41:52;;;;;;;3.88;1.25;;;8.60;99.90;;;;;;5040991;28;20403;-64
2020/12/24 01:44:17;;;;;;;3.75;0.63;;;8.60;99.90;;;;;;5037583;28;20513;-64
2020/12/24 01:46:43;;;;;;;7.07;0.85;;;8.60;99.90;;;;;;5040923;28;20513;-63
2020/12/24 01:49:08;;;;;;;5.07;0.93;;;8.60;99.90;;;;;;5041350;28;20147;-65
2020/12/24 01:51:34;;;;;;;5.20;0.60;;;8.60;99.90;;;;;;5040073;28;20494;-64
2020/12/24 01:54:00;;;;;;;6.50;0.55;;;8.60;99.90;;;;;;5042451;28;20037;-64
2020/12/24 01:56:26;;;;;;;5.13;0.77;;;8.60;99.90;;;;;;5038405;28;20470;-64
2020/12/24 01:58:53;;;;;;;2.47;0.47;;;8.50;99.90;;;;;;5041960;28;20048;-65
2020/12/24 02:01:19;;;;;;;6.50;0.30;;;8.50;99.90;;;;;;5038966;28;20123;-64
2020/12/24 02:03:45;;;;;;;3.20;0.55;;;8.50;99.90;;;;;;5041571;28;20038;-66
2020/12/24 02:06:11;;;;;;;5.68;0.65;;;8.50;99.90;;;;;;5040963;28;20049;-64
2020/12/24 02:08:37;;;;;;;1.90;0.55;;;8.50;99.90;;;;;;5039554;28;20040;-64
2020/12/24 02:11:03;;;;;;;3.72;0.40;;;8.60;99.90;;;;;;5041743;28;20133;-64
2020/12/24 02:13:29;;;;;;;5.10;0.80;;;8.60;99.90;;;;;;5038977;28;20113;-63
2020/12/24 02:15:55;;;;;;;5.60;0.65;;;8.60;99.90;;;;;;5042189;28;20178;-65
2020/12/24 02:18:21;;;;;;;1.08;0.30;;;8.60;99.90;;;;;;5038000;28;20079;-64
2020/12/24 02:20:47;;;;;;;3.10;0.32;;;8.60;99.90;;;;;;5041556;28;20049;-64
2020/12/24 02:23:12;;;;;;;3.65;0.50;;;8.60;99.90;;;;;;5039847;28;20378;-64
2020/12/24 02:25:40;;;;;;;6.38;0.30;;;8.50;99.90;;;;;;5040351;28;20052;-64
2020/12/24 02:28:06;;;;;;;3.15;0.55;;;8.60;99.90;;;;;;5040646;28;20033;-64
2020/12/24 02:30:32;;;;;;;4.28;0.50;;;8.50;99.90;;;;;;5038179;28;20076;-64
2020/12/24 02:32:58;;;;;;;5.78;1.02;;;8.50;99.90;;;;;;5042214;28;20039;-65
2020/12/24 02:35:24;;;;;;;2.28;0.30;;;8.50;99.90;;;;;;5039299;28;20045;-63
2020/12/24 02:37:49;;;;;;;5.53;1.02;;;8.50;99.90;;;;;;5042026;28;20142;-64
2020/12/24 02:40:15;;;;;;;2.63;0.30;;;8.40;99.90;;;;;;5037884;28;20072;-64
2020/12/24 02:42:41;;;;;;;6.53;1.10;;;8.40;99.90;;;;;;5040335;28;20041;-64
2020/12/24 02:45:06;;;;;;;4.63;0.60;;;8.40;99.90;;;;;;5040510;28;20364;-64
2020/12/24 02:47:36;;;;;;;5.10;0.95;;;8.40;99.90;;;;;;5039571;28;20034;-64
2020/12/24 02:50:02;;;;;;;4.30;0.35;;;8.40;99.90;;;;;;5039831;28;20074;-64
2020/12/24 02:52:28;;;;;;;2.78;0.50;;;8.30;99.90;;;;;;5039049;28;20120;-63
2020/12/24 02:54:53;;;;;;;3.05;0.60;;;8.30;99.90;;;;;;5043652;28;20060;-64
2020/12/24 02:57:19;;;;;;;5.90;0.40;;;8.30;99.90;;;;;;5040000;28;20136;-63
2020/12/24 02:59:45;;;;;;;4.72;0.50;;;8.40;99.90;;;;;;5042692;28;20030;-64
2020/12/24 03:02:10;;;;;;;3.95;0.50;;;8.30;99.90;;;;;;5038338;28;20029;-64
2020/12/24 03:04:36;;;;;;;6.70;1.05;;;8.30;99.90;;;;;;5039361;28;20033;-64
2020/12/24 03:07:01;;;;;;;1.60;0.47;;;8.30;99.90;;;;;;5041011;28;20073;-64
2020/12/24 03:09:27;;;;;;;7.32;1.05;;;8.40;99.90;;;;;;5037920;28;20044;-64
2020/12/24 03:11:52;;;;;;;12.40;1.58;;;8.40;99.90;;;;;;5041632;28;20067;-64
2020/12/24 03:14:18;;;;;;;5.22;0.80;;;8.40;99.90;;;;;;5037810;28;20026;-64
2020/12/24 03:16:46;;;;;;;2.67;0.55;;;8.40;99.90;;;;;;5040577;28;20147;-65
2020/12/24 03:19:11;;;;;;;7.50;1.60;;;8.50;99.90;;;;;;5038926;28;20127;-64
2020/12/24 03:21:37;;;;;;;2.42;0.50;;;8.40;99.90;;;;;;5038110;28;20319;-64
2020/12/24 03:24:03;;;;;;;3.42;0.35;;;8.40;99.90;;;;;;5040556;28;20055;-64
2020/12/24 03:26:28;;;;;;;5.50;0.82;;;8.40;99.90;;;;;;5037963;28;20439;-64
2020/12/24 03:28:54;;;;;;;3.55;0.60;;;8.50;99.90;;;;;;5041495;28;20056;-65
2020/12/24 03:31:22;;;;;;;3.25;1.00;;;8.50;99.90;;;;;;5037750;28;20302;-64
2020/12/24 03:33:48;;;;;;;2.03;1.13;;;8.60;99.90;;;;;;5039573;28;20029;-64
2020/12/24 03:36:14;;;;;;;4.93;1.02;;;8.60;99.90;;;;;;5038288;28;20064;-64
2020/12/24 03:38:39;;;;;;;1.67;0.70;;;8.50;99.90;;;;;;5040026;28;20394;-64
2020/12/24 03:41:05;;;;;;;1.13;0.50;;;8.40;99.90;;;;;;5039975;28;20112;-63
2020/12/24 03:43:30;;;;;;;1.25;0.50;;;8.30;99.90;;;;;;5038465;28;20037;-64
2020/12/24 03:45:56;;;;;;;1.23;0.40;;;8.10;99.90;;;;;;5040834;28;20040;-64
2020/12/24 03:48:21;;;;;;;0.50;0.30;;;7.90;99.90;;;;;;5037698;28;20034;-64
2020/12/24 03:50:47;;;;;;;1.75;0.20;;;7.70;99.90;;;;;;5041010;28;20037;-63
2020/12/24 03:53:13;;;;;;;0.77;0.40;;;7.60;99.90;;;;;;5038144;28;20048;-66
2020/12/24 03:55:38;;;;;;;1.63;0.22;;;7.50;99.90;;;;;;5039477;28;20056;-64
2020/12/24 03:58:04;;;;;;;4.85;0.20;;;7.40;99.90;;;;;;5039857;28;20166;-64
2020/12/24 04:00:29;;;;;;;1.10;0.22;;;7.30;99.90;;;;;;5038053;28;20034;-64
2020/12/24 04:02:55;;;;;;;0.75;0.47;;;7.20;99.90;;;;;;5040837;28;20170;-64
2020/12/24 04:05:20;;;;;;;1.75;0.35;;;7.10;99.90;;;;;;5035803;28;20032;-64
2020/12/24 04:07:49;;;;;;;1.17;0.80;;;7.00;99.90;;;;;;5040668;28;20132;-63
2020/12/24 04:10:15;;;;;;;2.83;0.40;;;6.90;99.90;;;;;;5036187;28;20029;-65
2020/12/24 04:12:40;;;;;;;1.77;0.57;;;6.80;99.90;;;;;;5040083;28;20029;-64
2020/12/24 04:15:06;;;;;;;2.35;0.60;;;6.80;99.90;;;;;;5039241;28;20033;-63
2020/12/24 04:17:32;;;;;;;3.15;0.55;;;6.70;99.90;;;;;;5038570;28;20060;-64
2020/12/24 04:19:57;;;;;;;1.40;0.85;;;6.70;99.90;;;;;;5044471;28;20032;-64
2020/12/24 04:22:23;;;;;;;2.45;1.08;;;6.60;99.90;;;;;;5037881;28;20049;-64
2020/12/24 04:24:48;;;;;;;1.90;0.30;;;6.50;99.90;;;;;;5040766;28;20505;-65
2020/12/24 04:27:14;;;;;;;2.15;0.30;;;6.40;99.90;;;;;;5037705;28;20145;-64
2020/12/24 04:29:39;;;;;;;0.77;0.30;;;6.40;99.90;;;;;;5039351;28;20032;-64
2020/12/24 04:32:05;;;;;;;1.52;0.40;;;6.30;99.90;;;;;;5040168;28;20041;-64
2020/12/24 04:34:30;;;;;;;0.95;0.28;;;6.20;99.90;;;;;;5040345;28;20064;-64
2020/12/24 04:36:56;;;;;;;0.30;0.10;;;6.20;99.90;;;;;;5043893;28;20493;-64
2020/12/24 04:39:22;;;;;;;1.83;0.20;;;6.10;99.90;;;;;;5040801;28;20068;-64
2020/12/24 04:41:47;;;;;;;0.47;0.10;;;5.90;99.90;;;;;;5044465;28;20032;-63
2020/12/24 04:44:14;;;;;;;0.65;0.00;;;5.80;99.90;;;;;;5041227;28;20037;-64
2020/12/24 04:46:42;;;;;;;0.00;0.00;;;5.70;99.90;;;;;;5043161;28;20116;-64
2020/12/24 04:49:09;;;;;;;1.02;0.00;;;5.60;99.90;;;;;;5040700;28;20545;-63
2020/12/24 04:51:35;;;;;;;0.73;0.00;;;5.40;99.90;;;;;;5040900;28;20124;-63
2020/12/24 04:54:01;;;;;;;0.00;0.00;;;5.30;99.90;;;;;;5042496;28;20116;-63
2020/12/24 04:56:27;;;;;;;0.10;0.00;;;5.20;99.90;;;;;;5041492;28;20508;-64
2020/12/24 04:58:53;;;;;;;0.10;0.00;;;5.20;99.90;;;;;;5043928;28;20029;-64
2020/12/24 05:01:19;;;;;;;3.03;0.65;;;5.10;99.90;;;;;;5041030;28;20087;-64
2020/12/24 05:03:46;;;;;;;0.55;0.00;;;5.10;99.90;;;;;;5043687;28;20037;-64
2020/12/24 05:06:16;;;;;;;0.00;0.00;;;5.00;99.90;;;;;;5039540;28;20038;-64
2020/12/24 05:08:53;;;;;;;0.05;0.00;;;5.10;99.90;;;;;;5043181;28;20048;-64
2020/12/24 05:11:30;;;;;;;0.28;0.00;;;5.00;99.90;;;;;;5039351;28;20032;-63
2020/12/24 05:14:14;;;;;;;0.00;0.00;;;4.90;99.90;;;;;;5042711;28;20067;-64
2020/12/24 05:16:40;;;;;;;0.00;0.00;;;4.80;99.90;;;;;;5043145;28;20098;-63
2020/12/24 05:19:11;;;;;;;0.40;0.10;;;4.90;99.90;;;;;;5041321;28;20041;-64
2020/12/24 05:21:39;;;;;;;0.90;0.00;;;4.80;99.90;;;;;;5042637;28;20041;-64
2020/12/24 05:24:21;;;;;;;0.45;0.22;;;4.80;99.90;;;;;;5040051;28;20039;-63
2020/12/24 05:26:46;;;;;;;0.20;0.00;;;4.80;99.90;;;;;;5038565;28;20103;-64
2020/12/24 05:29:12;;;;;;;3.67;0.00;;;4.70;99.90;;;;;;5040504;28;20422;-64
2020/12/24 05:31:38;;;;;;;0.57;0.30;;;4.70;99.90;;;;;;5042548;28;20112;-63
2020/12/24 05:34:03;;;;;;;0.38;0.00;;;4.70;99.90;;;;;;5041378;28;20098;-64
2020/12/24 05:36:29;;;;;;;0.73;0.10;;;4.70;99.90;;;;;;5047804;28;20042;-64
2020/12/24 05:38:54;;;;;;;0.00;0.00;;;4.60;99.90;;;;;;5046915;28;20029;-64
2020/12/24 05:41:26;;;;;;;0.90;0.00;;;4.60;99.90;;;;;;5045100;28;20025;-64
2020/12/24 05:44:00;;;;;;;0.80;0.00;;;4.60;99.90;;;;;;5041298;28;20098;-64
2020/12/24 05:46:27;;;;;;;0.70;0.40;;;4.60;99.90;;;;;;5041209;28;20030;-64
2020/12/24 05:48:53;;;;;;;0.20;0.00;;;4.60;99.90;;;;;;5040501;28;20120;-64
2020/12/24 05:51:19;;;;;;;1.92;0.10;;;4.70;99.90;;;;;;5039015;28;20167;-64
2020/12/24 05:53:48;;;;;;;0.57;0.15;;;4.60;99.90;;;;;;5041358;28;20120;-63
2020/12/24 05:56:21;;;;;;;0.90;0.10;;;4.70;99.90;;;;;;5039920;28;20037;-64
2020/12/24 05:58:48;;;;;;;0.10;0.00;;;4.70;99.90;;;;;;5037916;28;20053;-64
2020/12/24 06:01:15;;;;;;;0.43;0.10;;;4.70;99.90;;;;;;5041967;28;20029;-64
2020/12/24 06:04:03;;;;;;;0.22;0.00;;;4.70;99.90;;;;;;5038954;28;20033;-67
2020/12/24 06:06:47;;;;;;;0.50;0.10;;;4.70;99.90;;;;;;5041669;28;20042;-64
2020/12/24 06:09:19;;;;;;;0.65;0.10;;;4.70;99.90;;;;;;5039253;28;20116;-64
2020/12/24 06:11:47;;;;;;;0.93;0.00;;;4.70;99.90;;;;;;5038051;28;20040;-64
2020/12/24 06:14:31;;;;;;;0.10;0.00;;;4.80;99.90;;;;;;5037536;28;20025;-64
2020/12/24 06:17:03;;;;;;;2.08;0.10;;;4.80;99.90;;;;;;5040686;28;20536;-64
2020/12/24 06:19:28;;;;;;;3.45;0.35;;;4.90;99.90;;;;;;5040850;28;20037;-64
2020/12/24 06:21:54;;;;;;;1.35;0.10;;;4.90;99.90;;;;;;5038707;28;20044;-64
2020/12/24 06:24:20;;;;;;;0.45;0.00;;;4.90;99.90;;;;;;5041976;28;20490;-64
2020/12/24 06:26:55;;;;;;;0.90;0.00;;;4.90;99.90;;;;;;5039448;28;20029;-64
2020/12/24 06:29:24;;;;;;;0.90;0.00;;;4.90;99.90;;;;;;5040052;28;20029;-64
2020/12/24 06:31:52;;;;;;;0.10;0.00;;;4.90;99.90;;;;;;5040024;28;20038;-65
2020/12/24 06:34:23;;;;;;;0.05;0.00;;;4.90;99.90;;;;;;5041191;28;20032;-64
2020/12/24 06:36:49;;;;;;;1.27;0.10;;;5.00;99.90;;;;;;5038163;28;20036;-65
2020/12/24 06:39:39;;;;;;;1.35;0.00;;;4.90;99.90;;;;;;5041655;28;20633;-63
2020/12/24 06:42:04;;;;;;;0.33;0.07;;;4.90;99.90;;;;;;5042191;28;20047;-64
2020/12/24 06:44:47;;;;;;;1.10;0.10;;;4.90;99.90;;;;;;5040022;28;20107;-64
2020/12/24 06:47:15;;;;;;;0.73;0.00;;;4.90;99.90;;;;;;5038661;28;20036;-64
2020/12/24 06:49:41;;;;;;;0.10;0.00;;;4.90;99.90;;;;;;5042240;28;20041;-64
2020/12/24 06:52:06;;;;;;;1.23;0.00;;;4.90;99.90;;;;;;5041289;28;20029;-64
2020/12/24 06:54:32;;;;;;;0.45;0.00;;;5.00;99.90;;;;;;5041126;28;20048;-64
2020/12/24 06:57:25;;;;;;;0.22;0.00;;;5.10;99.90;;;;;;5043288;28;20033;-64
2020/12/24 07:00:19;;;;;;;0.10;0.00;;;5.10;99.90;;;;;;5044459;28;20402;-64
2020/12/24 07:02:49;;;;;;;0.22;0.00;;;5.20;99.90;;;;;;5039438;28;20072;-64
2020/12/24 07:05:42;;;;;;;1.17;0.17;;;5.20;99.90;;;;;;5041359;28;20449;-64
2020/12/24 07:08:32;;;;;;;0.57;0.10;;;5.20;99.90;;;;;;5038182;28;20041;-64
2020/12/24 07:11:02;;;;;;;1.10;0.75;;;5.20;99.90;;;;;;5038706;28;20041;-64
2020/12/24 07:13:36;;;;;;;0.20;0.00;;;5.30;99.90;;;;;;5038320;28;20044;-64
2020/12/24 07:16:03;;;;;;;0.08;0.00;;;5.30;99.90;;;;;;5040770;28;20051;-63
2020/12/24 07:18:35;;;;;;;0.25;0.13;;;5.30;99.90;;;;;;5038986;28;20196;-64
2020/12/24 07:21:06;;;;;;;0.10;0.00;;;5.30;99.90;;;;;;5040619;28;21116;-64
2020/12/24 07:23:39;;;;;;;0.17;0.08;;;5.40;99.90;;;;;;5038509;28;20088;-64
2020/12/24 07:26:10;;;;;;;0.20;0.10;;;5.40;99.90;;;;;;5039357;28;20054;-64
2020/12/24 07:28:38;;;;;;;0.10;0.00;;;5.40;99.90;;;;;;5036404;28;20030;-64
2020/12/24 07:31:05;;;;;;;2.55;0.00;;;5.30;99.90;;;;;;5040639;28;20047;-64
2020/12/24 07:33:31;;;;;;;0.85;0.10;;;5.40;99.90;;;;;;5038362;28;20490;-64
2020/12/24 07:35:57;;;;;;;0.73;0.00;;;5.40;99.90;;;;;;5039913;28;20025;-64
2020/12/24 07:38:28;;;;;;;0.63;0.25;;;5.40;99.90;;;;;;5039473;28;20040;-65
2020/12/24 07:40:54;;;;;;;0.38;0.10;;;5.40;99.90;;;;;;5039172;28;20029;-65
2020/12/24 07:43:20;;;;;;;2.00;0.10;;;5.40;99.90;;;;;;5039964;28;20078;-64
2020/12/24 07:45:45;;;;;;;1.05;0.30;;;5.40;99.90;;;;;;5038479;28;20041;-64
2020/12/24 07:48:22;;;;;;;2.95;0.20;;;5.40;99.90;;;;;;5040598;28;20041;-65
2020/12/24 07:50:49;;;;;;;0.57;0.25;;;5.50;99.90;;;;;;5039097;28;20033;-65
2020/12/24 07:53:23;;;;;;;2.53;0.32;;;5.50;99.90;;;;;;5040008;28;20029;-65
2020/12/24 07:55:49;;;;;;;0.63;0.40;;;5.50;99.90;;;;;;5037161;28;20612;-64
2020/12/24 07:58:16;;;;;;;2.08;0.52;;;5.50;99.90;;;;;;5039875;28;20170;-64
2020/12/24 08:00:52;;;;;;;0.52;0.30;;;5.50;99.90;;;;;;5038999;28;20044;-64
2020/12/24 08:03:19;;;;;;;0.90;0.28;;;5.50;99.90;;;;;;5037472;28;20135;-65
2020/12/24 08:05:48;;;;;;;3.03;0.50;;;5.50;99.90;;;;;;5038459;28;20033;-64
2020/12/24 08:08:21;;;;;;;2.38;0.30;;;5.60;99.90;;;;;;5035833;28;20033;-64
2020/12/24 08:10:47;;;;;;;1.55;0.30;;;5.50;99.90;;;;;;5038202;28;20124;-64
2020/12/24 08:13:13;;;;;;;2.50;0.40;;;5.60;99.90;;;;;;5037546;28;20125;-65
2020/12/24 08:15:41;;;;;;;2.35;0.60;;;5.50;99.90;;;;;;5040290;28;20504;-65
2020/12/24 08:18:12;;;;;;;1.25;0.50;;;5.60;99.90;;;;;;5044034;28;20389;-65
2020/12/24 08:20:49;;;;;;;;;;;5.60;99.90;;;;;;5041251;28;20231;-65
2020/12/24 08:23:26;;;;;;;3.17;0.43;;;5.60;99.90;;;;;;5072284;28;19917;-65
2020/12/24 08:25:52;;;;;;;1.50;0.40;;;5.60;99.90;;;;;;5042110;28;20418;-65
2020/12/24 08:28:19;;;;;;;1.73;0.47;;;5.70;99.90;;;;;;5041531;28;20033;-65
2020/12/24 08:30:47;;;;;;;0.80;0.40;;;5.60;99.90;;;;;;5041948;28;20029;-66
2020/12/24 08:33:14;;;;;;;2.70;0.30;;;5.60;99.90;;;;;;5041919;28;20029;-65
2020/12/24 08:35:40;;;;;;;1.67;0.55;;;5.60;99.90;;;;;;5052719;23;20119;-59
2020/12/24 08:38:19;;;;;;;3.50;0.55;;;5.60;99.90;;;;;;5040913;28;20175;-59
2020/12/24 08:40:45;;;;;;;1.23;0.38;;;5.60;99.90;;;;;;5042203;28;20185;-59
2020/12/24 08:43:12;;;;;;;1.50;0.82;;;5.60;99.90;;;;;;5043242;28;20401;-60
2020/12/24 08:45:46;;;;;;;1.48;0.40;;;5.70;99.90;;;;;;5040018;28;20476;-60
2020/12/24 08:48:31;;;;;;;1.48;0.30;;;5.70;99.90;;;;;;5027732;28;20033;-60
2020/12/24 08:50:57;;;;;;;2.33;0.40;;;5.70;99.90;;;;;;5037203;28;20131;-59
2020/12/24 08:53:28;;;;;;;2.90;0.38;;;5.70;99.90;;;;;;5039004;28;20632;-59
2020/12/24 08:55:54;;;;;;;2.60;0.40;;;5.70;99.90;;;;;;5038534;28;20068;-60
2020/12/24 08:58:20;;;;;;;1.10;0.30;;;5.70;99.90;;;;;;5038445;28;20029;-59
2020/12/24 09:00:46;;;;;;;1.75;0.25;;;5.80;99.90;;;;;;5037981;28;20087;-62
2020/12/24 09:03:24;;;;;;;0.68;0.10;;;5.80;99.90;;;;;;5039476;28;20029;-59
2020/12/24 09:05:50;;;;;;;2.45;0.30;;;5.80;99.90;;;;;;5039153;28;20489;-61
2020/12/24 09:08:28;;;;;;;3.08;1.02;;;5.80;99.90;;;;;;5035260;28;20119;-60
2020/12/24 09:10:54;;;;;;;2.83;0.30;;;5.80;99.90;;;;;;5032679;28;20040;-60
2020/12/24 09:13:20;;;;;;;1.45;0.50;;;5.80;99.90;;;;;;5031924;28;20057;-60
2020/12/24 09:15:46;;;;;;;4.05;0.40;;;5.80;99.90;;;;;;5027362;28;20073;-60
2020/12/24 09:18:12;;;;;;;0.63;0.20;;;5.80;99.90;;;;;;5032778;28;20316;-60
2020/12/24 09:20:38;;;;;;;2.80;0.32;;;5.80;99.90;;;;;;5035939;28;20091;-59
2020/12/24 09:23:15;;;;;;;4.10;0.60;;;5.80;99.90;;;;;;5035955;28;20045;-60
2020/12/24 09:25:42;;;;;;;1.48;0.47;;;5.80;99.90;;;;;;5034347;28;20029;-60
2020/12/24 09:28:27;;;;;;;4.35;0.40;;;5.90;99.90;;;;;;5039929;28;20070;-60
2020/12/24 09:30:54;;;;;;;4.20;0.60;;;5.90;99.90;;;;;;5040485;28;20099;-60
2020/12/24 09:33:20;;;;;;;4.22;0.93;;;5.90;99.90;;;;;;5037909;28;20551;-59
2020/12/24 09:35:46;;;;;;;2.10;0.70;;;5.90;99.90;;;;;;5037771;28;20033;-60
2020/12/24 09:38:12;;;;;;;3.53;0.80;;;5.90;99.90;;;;;;5043050;28;20025;-60
2020/12/24 09:40:38;;;;;;;4.63;0.80;;;5.90;99.90;;;;;;5040973;28;20025;-65
2020/12/24 09:43:04;;;;;;;4.50;0.80;;;6.00;99.90;;;;;;5042056;28;20025;-64
2020/12/24 09:45:30;;;;;;;4.47;0.50;;;6.00;99.90;;;;;;5040622;28;20068;-61
2020/12/24 09:47:56;;;;;;;4.07;0.70;;;6.00;99.90;;;;;;5041322;28;20060;-60
2020/12/24 09:50:22;;;;;;;3.80;0.47;;;6.10;99.90;;;;;;5042219;28;20108;-61
2020/12/24 09:52:48;;;;;;;1.27;0.38;;;6.10;99.90;;;;;;5040103;28;20033;-60
2020/12/24 09:55:13;;;;;;;7.30;0.50;;;6.10;99.90;;;;;;5039022;28;20037;-60
2020/12/24 09:57:39;;;;;;;4.53;0.70;;;6.20;99.90;;;;;;5038202;28;20370;-60
2020/12/24 10:00:09;;;;;;;5.30;0.70;;;6.30;99.90;;;;;;5042023;28;20025;-60
2020/12/24 10:02:37;;;;;;;4.88;0.32;;;6.30;99.90;;;;;;5042140;28;20749;-61
2020/12/24 10:05:04;;;;;;;5.82;0.45;;;6.40;99.90;;;;;;5038601;28;20424;-61
2020/12/24 10:07:30;;;;;;;11.65;0.98;;;6.50;99.90;;;;;;5039244;28;20033;-60
2020/12/24 10:09:56;;;;;;;5.25;0.55;;;6.50;99.90;;;;;;5043439;28;20128;-59
2020/12/24 10:12:24;;;;;;;7.82;1.35;;;6.60;99.90;;;;;;5037894;28;20025;-59
2020/12/24 10:14:50;;;;;;;13.95;0.88;;;6.60;99.90;;;;;;5037578;28;20057;-61
2020/12/24 10:17:16;;;;;;;3.83;0.45;;;6.60;99.90;;;;;;5040860;28;20067;-59
2020/12/24 10:19:45;;;;;;;6.68;0.40;;;6.60;99.90;;;;;;5040258;28;20033;-60
2020/12/24 10:22:12;;;;;;;5.63;0.60;;;6.70;99.90;;;;;;5039764;28;20029;-59
2020/12/24 10:24:40;;;;;;;6.47;1.02;;;6.70;99.90;;;;;;5037480;28;20344;-59
2020/12/24 10:27:05;;;;;;;6.38;0.80;;;6.70;99.90;;;;;;5040285;28;20500;-59
2020/12/24 10:29:31;;;;;;;7.72;0.77;;;6.80;99.90;;;;;;5038593;28;20041;-59
2020/12/24 10:31:57;;;;;;;6.65;0.80;;;6.80;99.90;;;;;;5037573;28;20082;-59
2020/12/24 10:34:22;;;;;;;5.45;0.63;;;6.80;99.90;;;;;;5040748;28;20108;-60
2020/12/24 10:36:48;;;;;;;11.60;1.77;;;6.80;99.90;;;;;;5038398;28;20033;-60
2020/12/24 10:39:14;;;;;;;9.95;1.00;;;6.80;99.90;;;;;;5042006;28;20190;-60
2020/12/24 10:41:40;;;;;;;5.32;1.20;;;6.80;99.90;;;;;;5040377;28;20382;-59
2020/12/24 10:44:07;;;;;;;9.75;1.60;;;6.90;99.90;;;;;;5040365;28;20563;-60
2020/12/24 10:46:33;;;;;;;14.50;1.52;;;6.90;99.90;;;;;;5040412;28;20119;-59
2020/12/24 10:48:59;;;;;;;6.57;0.73;;;6.90;99.90;;;;;;5041410;28;20057;-59
2020/12/24 10:51:25;;;;;;;10.73;1.02;;;6.90;99.90;;;;;;5041865;28;20034;-60
2020/12/24 10:53:51;;;;;;;3.05;0.57;;;6.90;99.90;;;;;;5040630;28;20119;-61
2020/12/24 10:56:17;;;;;;;10.75;1.52;;;6.90;99.90;;;;;;5042429;28;20171;-59
2020/12/24 10:58:44;;;;;;;10.25;1.65;;;6.90;99.90;;;;;;5040232;28;20045;-59
2020/12/24 11:01:14;;;;;;;11.05;1.00;;;7.00;99.90;;;;;;5040535;28;20025;-59
2020/12/24 11:03:40;;;;;;;5.95;1.00;;;6.90;99.90;;;;;;5034123;28;20029;-62
2020/12/24 11:06:07;;;;;;;10.02;0.68;;;7.00;99.90;;;;;;5036773;28;20517;-61
2020/12/24 11:08:33;;;;;;;5.65;0.60;;;7.00;99.90;;;;;;5039375;28;20037;-61
2020/12/24 11:10:59;;;;;;;12.43;2.25;;;7.00;99.90;;;;;;5035020;28;20029;-60
2020/12/24 11:13:25;;;;;;;9.60;0.68;;;7.00;99.90;;;;;;5041239;28;20437;-60
2020/12/24 11:15:51;;;;;;;8.77;0.85;;;7.00;99.90;;;;;;5038348;28;20056;-63
2020/12/24 11:18:17;;;;;;;5.75;0.90;;;7.10;99.90;;;;;;5037963;28;21307;-60
2020/12/24 11:20:42;;;;;;;5.35;1.05;;;7.00;99.90;;;;;;5039957;28;20033;-60
2020/12/24 11:23:08;;;;;;;8.75;1.20;;;7.10;99.90;;;;;;5034657;28;20064;-59
2020/12/24 11:25:34;;;;;;;7.45;1.20;;;7.10;99.90;;;;;;5040452;28;20539;-59
2020/12/24 11:28:00;;;;;;;6.03;0.60;;;7.10;99.90;;;;;;5037265;28;20968;-60
2020/12/24 11:30:26;;;;;;;9.85;1.55;;;7.10;99.90;;;;;;5041390;28;20097;-61
2020/12/24 11:32:52;;;;;;;5.68;0.82;;;7.20;99.90;;;;;;5037315;28;20083;-59
2020/12/24 11:35:17;;;;;;;3.65;0.57;;;7.20;99.90;;;;;;5037617;28;20559;-60
2020/12/24 11:37:43;;;;;;;6.43;0.50;;;7.20;99.90;;;;;;5040333;28;20061;-59
2020/12/24 11:40:08;;;;;;;3.10;0.93;;;7.30;99.90;;;;;;5038871;28;20022;-59
2020/12/24 11:42:34;;;;;;;8.23;0.73;;;7.30;99.90;;;;;;5039839;28;20053;-60
2020/12/24 11:44:59;;;;;;;6.13;0.65;;;7.30;99.90;;;;;;5037612;28;20029;-60
2020/12/24 11:47:25;;;;;;;10.02;1.10;;;7.30;99.90;;;;;;5039584;28;20557;-60
2020/12/24 11:49:51;;;;;;;8.95;1.02;;;7.30;99.90;;;;;;5037001;28;20082;-60
2020/12/24 11:52:16;;;;;;;6.40;0.45;;;7.40;99.90;;;;;;5034724;28;20033;-61
2020/12/24 11:54:42;;;;;;;8.35;0.50;;;7.40;99.90;;;;;;5034992;28;20101;-60
2020/12/24 11:57:08;;;;;;;8.80;0.80;;;7.40;99.90;;;;;;5035745;28;20069;-60
2020/12/24 11:59:34;;;;;;;6.50;0.65;;;7.40;99.90;;;;;;5033931;28;20485;-61
2020/12/24 12:02:00;;;;;;;6.05;0.93;;;7.50;99.90;;;;;;5037526;28;20025;-60
2020/12/24 12:04:27;;;;;;;5.13;0.60;;;7.50;99.90;;;;;;5035994;28;20083;-60
2020/12/24 12:06:52;;;;;;;7.07;0.60;;;7.50;99.90;;;;;;5040449;28;20033;-60
2020/12/24 12:09:18;;;;;;;3.90;0.40;;;7.50;99.90;;;;;;5040314;28;20038;-60
2020/12/24 12:11:46;;;;;;;4.18;0.30;;;7.50;99.90;;;;;;5039786;28;20060;-60
2020/12/24 12:14:11;;;;;;;0.80;0.35;;;7.50;99.90;;;;;;5040171;28;20071;-60
2020/12/24 12:16:37;;;;;;;3.38;0.88;;;7.60;99.90;;;;;;5040676;28;20049;-59
2020/12/24 12:19:03;;;;;;;1.70;0.52;;;7.50;99.90;;;;;;5038067;28;20545;-63
2020/12/24 12:21:28;;;;;;;2.42;1.08;;;7.40;99.90;;;;;;5037863;28;20037;-61
2020/12/24 12:23:54;;;;;;;2.08;0.20;;;7.40;99.90;;;;;;5038645;28;20451;-59
2020/12/24 12:26:20;;;;;;;11.07;2.05;;;7.40;99.90;;;;;;5036473;28;20056;-60
2020/12/24 12:28:46;;;;;;;7.25;1.23;;;7.30;99.90;;;;;;5039517;28;20045;-60
2020/12/24 12:31:17;;;;;;;5.40;0.35;;;7.30;99.90;;;;;;5035372;28;20157;-60
2020/12/24 12:33:42;;;;;;;5.15;0.50;;;7.20;99.90;;;;;;5038577;28;20047;-60
2020/12/24 12:36:08;;;;;;;3.05;0.35;;;7.20;99.90;;;;;;5035034;28;20056;-60
2020/12/24 12:38:33;;;;;;;3.00;0.20;;;7.20;99.90;;;;;;5039102;28;20072;-60
2020/12/24 12:40:59;;;;;;;3.60;0.10;;;7.20;99.90;;;;;;5039830;28;20393;-60
2020/12/24 12:43:24;;;;;;;2.67;0.30;;;7.10;99.90;;;;;;5038925;28;20033;-61
2020/12/24 12:45:50;;;;;;;3.65;0.25;;;7.10;99.90;;;;;;5036255;28;20460;-59
2020/12/24 12:48:15;;;;;;;6.25;1.00;;;7.00;99.90;;;;;;5040080;28;20033;-60
2020/12/24 12:50:41;;;;;;;3.60;0.52;;;6.80;99.90;;;;;;5036030;28;20030;-59
2020/12/24 12:53:07;;;;;;;2.55;0.88;;;6.80;99.90;;;;;;5034748;28;20022;-61
2020/12/24 12:55:33;;;;;;;2.67;0.20;;;6.80;99.90;;;;;;5042204;28;20044;-60
2020/12/24 12:57:58;;;;;;;2.67;0.30;;;6.80;99.90;;;;;;5044377;28;20029;-60
2020/12/24 13:00:24;;;;;;;4.40;0.52;;;6.80;99.90;;;;;;5042873;28;20029;-60